createdAt,value
2023-05-03T00:01:29.337Z,7.40
2023-05-03T00:03:56.960Z,9.07
2023-05-03T00:06:24.502Z,10.73
2023-05-03T00:08:52.077Z,8.95
2023-05-03T00:11:19.585Z,7.78
2023-05-03T00:13:48.560Z,8.15
2023-05-03T00:16:16.066Z,15.17
2023-05-03T00:18:43.617Z,7.55
2023-05-03T00:21:11.101Z,7.05
2023-05-03T00:23:38.676Z,6.03
2023-05-03T00:26:06.462Z,7.70
2023-05-03T00:28:34.129Z,6.93
2023-05-03T00:31:09.691Z,8.27
2023-05-03T00:33:38.228Z,9.55
2023-05-03T00:36:10.204Z,9.35
2023-05-03T00:38:38.268Z,6.45
2023-05-03T00:41:06.778Z,6.67
2023-05-03T00:43:37.715Z,8.27
2023-05-03T00:46:15.996Z,12.20
2023-05-03T00:48:48.966Z,8.68
2023-05-03T00:51:17.080Z,5.75
2023-05-03T00:53:44.662Z,6.47
2023-05-03T00:56:12.777Z,7.15
2023-05-03T00:58:40.896Z,7.00
2023-05-03T01:01:09.344Z,10.73
2023-05-03T01:03:38.034Z,7.43
2023-05-03T01:06:14.607Z,7.13
2023-05-03T01:08:51.634Z,7.63
2023-05-03T01:11:24.898Z,9.65
2023-05-03T01:13:56.990Z,6.13
2023-05-03T01:16:30.172Z,6.13
2023-05-03T01:19:02.762Z,8.97
2023-05-03T01:21:33.993Z,8.32
2023-05-03T01:24:08.568Z,9.02
2023-05-03T01:26:37.418Z,10.57
2023-05-03T01:29:06.460Z,7.60
2023-05-03T01:31:38.045Z,7.53
2023-05-03T01:34:22.846Z,9.55
2023-05-03T01:36:51.584Z,8.27
2023-05-03T01:39:23.768Z,7.40
2023-05-03T01:41:53.849Z,7.60
2023-05-03T01:44:23.798Z,9.03
2023-05-03T01:46:51.448Z,7.38
2023-05-03T01:49:19.035Z,6.65
2023-05-03T01:51:46.643Z,7.68
2023-05-03T01:54:14.237Z,6.13
2023-05-03T01:56:41.793Z,7.90
2023-05-03T01:59:11.261Z,8.40
2023-05-03T02:01:39.740Z,9.05
2023-05-03T02:04:08.514Z,7.80
2023-05-03T02:06:36.964Z,6.93
2023-05-03T02:09:04.711Z,7.40
2023-05-03T02:11:32.222Z,7.82
2023-05-03T02:13:59.859Z,9.70
2023-05-03T02:16:29.151Z,11.20
2023-05-03T02:18:59.375Z,8.43
2023-05-03T02:21:27.230Z,9.00
2023-05-03T02:23:54.805Z,8.02
2023-05-03T02:26:22.717Z,6.57
2023-05-03T02:28:50.338Z,8.65
2023-05-03T02:31:18.006Z,7.25
2023-05-03T02:33:47.265Z,6.33
2023-05-03T02:36:15.141Z,7.85
2023-05-03T02:38:44.803Z,7.50
2023-05-03T02:41:12.889Z,8.23
2023-05-03T02:43:40.464Z,7.88
2023-05-03T02:46:08.118Z,8.30
2023-05-03T02:48:35.717Z,8.10
2023-05-03T02:51:06.724Z,10.13
2023-05-03T02:53:34.295Z,6.40
2023-05-03T02:56:04.091Z,7.68
2023-05-03T02:58:31.939Z,7.77
2023-05-03T03:01:01.856Z,7.13
2023-05-03T03:03:31.202Z,8.50
2023-05-03T03:05:58.887Z,9.75
2023-05-03T03:08:27.780Z,7.05
2023-05-03T03:11:00.022Z,7.30
2023-05-03T03:13:27.610Z,11.48
2023-05-03T03:15:55.263Z,8.52
2023-05-03T03:18:22.871Z,7.95
2023-05-03T03:20:50.508Z,7.32
2023-05-03T03:23:19.056Z,10.53
2023-05-03T03:25:48.096Z,8.93
2023-05-03T03:28:16.846Z,9.93
2023-05-03T03:30:45.413Z,9.68
2023-05-03T03:33:24.396Z,8.15
2023-05-03T03:35:54.484Z,10.30
2023-05-03T03:38:26.597Z,8.82
2023-05-03T03:41:01.580Z,8.38
2023-05-03T03:43:29.991Z,11.57
2023-05-03T03:45:58.690Z,8.68
2023-05-03T03:48:26.560Z,10.17
2023-05-03T03:50:54.649Z,10.15
2023-05-03T03:53:26.859Z,9.50
2023-05-03T03:55:54.773Z,6.35
2023-05-03T03:58:26.468Z,8.48
2023-05-03T04:00:55.524Z,7.10
2023-05-03T04:03:25.054Z,7.25
2023-05-03T04:05:53.108Z,10.27
2023-05-03T04:08:22.303Z,9.25
2023-05-03T04:10:50.290Z,9.65
2023-05-03T04:13:18.471Z,10.13
2023-05-03T04:15:55.270Z,9.43
2023-05-03T04:18:22.875Z,8.75
2023-05-03T04:20:51.645Z,7.70
2023-05-03T04:23:19.267Z,8.75
2023-05-03T04:25:48.352Z,10.90
2023-05-03T04:28:17.501Z,8.95
2023-05-03T04:30:48.228Z,10.48
2023-05-03T04:33:21.978Z,7.43
2023-05-03T04:35:51.932Z,10.32
2023-05-03T04:38:19.834Z,9.43
2023-05-03T04:40:47.453Z,8.75
2023-05-03T04:43:15.146Z,9.15
2023-05-03T04:45:46.220Z,10.68
2023-05-03T04:48:18.788Z,9.13
2023-05-03T04:50:48.625Z,11.60
2023-05-03T04:53:18.904Z,9.63
2023-05-03T04:55:52.215Z,9.48
2023-05-03T04:58:21.175Z,9.43
2023-05-03T05:00:50.200Z,11.10
2023-05-03T05:03:25.438Z,11.40
2023-05-03T05:05:54.512Z,10.13
2023-05-03T05:08:22.178Z,10.68
2023-05-03T05:10:54.600Z,10.40
2023-05-03T05:13:26.420Z,10.75
2023-05-03T05:15:53.997Z,22.57
2023-05-03T05:18:21.527Z,11.43
2023-05-03T05:20:50.302Z,9.02
2023-05-03T05:23:20.668Z,9.85
2023-05-03T05:25:49.331Z,9.57
2023-05-03T05:28:17.944Z,11.40
2023-05-03T05:30:46.391Z,11.82
2023-05-03T05:33:14.681Z,9.13
2023-05-03T05:35:43.608Z,8.45
2023-05-03T05:38:12.183Z,9.27
2023-05-03T05:40:41.052Z,9.87
2023-05-03T05:43:09.573Z,9.30
2023-05-03T05:45:39.217Z,9.52
2023-05-03T05:48:08.188Z,10.48
2023-05-03T05:50:36.460Z,8.43
2023-05-03T05:53:09.349Z,7.93
2023-05-03T05:55:42.329Z,11.73
2023-05-03T05:58:12.812Z,10.98
2023-05-03T06:00:48.937Z,8.77
2023-05-03T06:03:16.863Z,8.98
2023-05-03T06:05:44.631Z,8.30
2023-05-03T06:08:12.697Z,10.80
2023-05-03T06:10:41.592Z,10.57
2023-05-03T06:13:09.266Z,11.35
2023-05-03T06:15:37.251Z,10.18
2023-05-03T06:18:05.295Z,9.43
2023-05-03T06:20:32.877Z,10.75
2023-05-03T06:23:01.635Z,8.02
2023-05-03T06:25:29.221Z,6.20
2023-05-03T06:27:58.188Z,5.28
2023-05-03T06:30:31.039Z,9.30
2023-05-03T06:33:04.530Z,5.93
2023-05-03T06:35:32.634Z,8.50
2023-05-03T06:38:00.220Z,7.80
2023-05-03T06:40:27.814Z,5.35
2023-05-03T06:42:55.368Z,9.40
2023-05-03T06:45:35.142Z,7.80
2023-05-03T06:48:02.782Z,5.80
2023-05-03T06:50:30.677Z,6.32
2023-05-03T06:52:58.270Z,4.40
2023-05-03T06:55:25.809Z,6.43
2023-05-03T06:57:53.976Z,5.88
2023-05-03T07:00:23.032Z,5.13
2023-05-03T07:02:51.927Z,4.78
2023-05-03T07:05:19.728Z,5.32
2023-05-03T07:07:47.213Z,5.93
2023-05-03T07:10:14.784Z,3.97
2023-05-03T07:12:42.310Z,4.60
2023-05-03T07:15:10.945Z,4.25
2023-05-03T07:17:38.581Z,5.15
2023-05-03T07:20:08.888Z,6.10
2023-05-03T07:22:36.377Z,4.45
2023-05-03T07:25:05.002Z,3.60
2023-05-03T07:27:32.661Z,5.47
2023-05-03T07:30:00.282Z,4.78
2023-05-03T07:32:27.976Z,4.90
2023-05-03T07:34:55.587Z,6.35
2023-05-03T07:37:24.932Z,3.97
2023-05-03T07:39:52.551Z,4.35
2023-05-03T07:42:20.335Z,3.80
2023-05-03T07:44:47.890Z,5.07
2023-05-03T07:47:15.416Z,5.90
2023-05-03T07:49:43.000Z,5.22
2023-05-03T07:52:10.766Z,5.20
2023-05-03T07:54:39.605Z,6.65
2023-05-03T07:57:07.668Z,5.37
2023-05-03T07:59:36.264Z,6.28
2023-05-03T08:02:04.033Z,4.30
2023-05-03T08:04:31.841Z,4.20
2023-05-03T08:07:01.531Z,4.45
2023-05-03T08:09:29.216Z,4.63
2023-05-03T08:11:58.128Z,4.93
2023-05-03T08:14:25.758Z,5.35
2023-05-03T08:16:53.265Z,6.53
2023-05-03T08:19:20.771Z,5.43
2023-05-03T08:21:48.459Z,4.80
2023-05-03T08:24:16.306Z,3.95
2023-05-03T08:26:44.946Z,4.40
2023-05-03T08:29:14.299Z,5.50
2023-05-03T08:31:42.120Z,5.05
2023-05-03T08:34:10.836Z,4.27
2023-05-03T08:36:39.152Z,6.13
2023-05-03T08:39:07.055Z,5.57
2023-05-03T08:41:34.854Z,4.88
2023-05-03T08:44:04.054Z,4.78
2023-05-03T08:46:36.933Z,6.33
2023-05-03T08:49:06.644Z,4.47
2023-05-03T08:51:35.254Z,4.57
2023-05-03T08:54:02.736Z,5.05
2023-05-03T08:56:34.362Z,5.25
2023-05-03T08:59:07.485Z,10.70
2023-05-03T09:01:36.794Z,6.40
2023-05-03T09:04:05.224Z,6.20
2023-05-03T09:06:33.924Z,4.53
2023-05-03T09:09:05.254Z,4.95
2023-05-03T09:11:34.176Z,5.10
2023-05-03T09:14:10.808Z,5.75
2023-05-03T09:16:40.817Z,5.15
2023-05-03T09:19:11.729Z,5.40
2023-05-03T09:21:40.004Z,5.20
2023-05-03T09:24:15.047Z,7.07
2023-05-03T09:26:42.971Z,4.53
2023-05-03T09:29:10.784Z,3.97
2023-05-03T09:31:59.749Z,4.80
2023-05-03T09:34:27.403Z,5.63
2023-05-03T09:36:55.035Z,4.43
2023-05-03T09:39:22.573Z,5.55
2023-05-03T09:41:50.422Z,4.93
2023-05-03T09:44:18.396Z,5.72
2023-05-03T09:47:06.209Z,5.80
2023-05-03T09:49:34.413Z,6.87
2023-05-03T09:52:02.734Z,5.18
2023-05-03T09:54:31.889Z,6.93
2023-05-03T09:57:00.601Z,6.35
2023-05-03T09:59:28.160Z,5.10
2023-05-03T10:01:58.801Z,8.50
2023-05-03T10:04:29.256Z,5.38
2023-05-03T10:07:00.723Z,5.07
2023-05-03T10:09:35.000Z,5.97
2023-05-03T10:12:08.155Z,5.68
2023-05-03T10:14:36.168Z,4.80
2023-05-03T10:17:08.785Z,6.25
2023-05-03T10:19:51.710Z,4.57
2023-05-03T10:22:19.357Z,5.82
2023-05-03T10:25:15.414Z,8.13
2023-05-03T10:27:52.286Z,6.90
2023-05-03T10:30:31.179Z,5.95
2023-05-03T10:32:59.658Z,5.68
2023-05-03T10:35:29.656Z,5.60
2023-05-03T10:37:58.549Z,5.13
2023-05-03T10:40:42.521Z,6.50
2023-05-03T10:43:44.592Z,5.45
2023-05-03T10:46:33.370Z,10.65
2023-05-03T10:49:18.167Z,4.82
2023-05-03T10:51:47.214Z,5.65
2023-05-03T10:54:14.788Z,7.47
2023-05-03T10:56:56.535Z,4.65
2023-05-03T10:59:25.448Z,5.07
2023-05-03T11:01:54.337Z,6.90
2023-05-03T11:04:37.666Z,6.60
2023-05-03T11:07:06.590Z,7.17
2023-05-03T11:09:35.333Z,5.05
2023-05-03T11:12:08.471Z,4.72
2023-05-03T11:14:36.198Z,6.85
2023-05-03T11:17:03.782Z,5.25
2023-05-03T11:19:31.717Z,5.60
2023-05-03T11:21:59.517Z,6.47
2023-05-03T11:24:28.672Z,7.22
2023-05-03T11:26:57.035Z,6.82
2023-05-03T11:29:26.035Z,6.50
2023-05-03T11:31:54.036Z,5.80
2023-05-03T11:34:21.581Z,6.22
2023-05-03T11:36:49.273Z,4.90
2023-05-03T11:39:18.730Z,7.07
2023-05-03T11:42:02.617Z,5.22
2023-05-03T11:44:30.517Z,4.70
2023-05-03T11:46:58.476Z,4.57
2023-05-03T11:49:26.145Z,4.45
2023-05-03T11:51:54.826Z,6.15
2023-05-03T11:54:26.947Z,7.22
2023-05-03T11:56:59.617Z,5.20
2023-05-03T11:59:38.790Z,4.72
2023-05-03T12:02:08.269Z,4.20
2023-05-03T12:04:41.402Z,5.55
2023-05-03T12:07:11.015Z,7.13
2023-05-03T12:09:40.024Z,5.10
2023-05-03T12:12:11.441Z,5.50
2023-05-03T12:14:58.858Z,6.18
2023-05-03T12:17:38.447Z,7.03
2023-05-03T12:22:51.230Z,6.80
2023-05-03T12:25:20.872Z,5.22
2023-05-03T12:28:10.518Z,6.30
2023-05-03T12:30:40.084Z,5.05
2023-05-03T12:33:10.117Z,5.97
2023-05-03T12:35:40.889Z,6.67
2023-05-03T12:38:10.300Z,4.75
2023-05-03T12:40:39.391Z,5.93
2023-05-03T12:43:08.903Z,6.90
2023-05-03T12:45:39.931Z,5.10
2023-05-03T12:48:08.721Z,7.03
2023-05-03T12:50:38.582Z,4.82
2023-05-03T12:53:09.526Z,5.63
2023-05-03T12:55:43.051Z,5.13
2023-05-03T12:58:46.192Z,6.85
2023-05-03T13:03:33.897Z,4.57
2023-05-03T13:06:11.795Z,7.30
2023-05-03T13:08:49.411Z,5.63
2023-05-03T13:11:19.013Z,5.68
2023-05-03T13:13:48.061Z,6.17
2023-05-03T13:16:16.015Z,7.22
2023-05-03T13:18:45.299Z,5.13
2023-05-03T13:21:13.097Z,5.80
2023-05-03T13:23:40.650Z,6.85
2023-05-03T13:26:08.185Z,5.60
2023-05-03T13:28:35.764Z,5.35
2023-05-03T13:31:05.105Z,7.57
2023-05-03T13:33:32.607Z,6.80
2023-05-03T13:36:00.169Z,7.45
2023-05-03T13:38:27.745Z,6.67
2023-05-03T13:40:55.302Z,5.75
2023-05-03T13:43:22.839Z,6.82
2023-05-03T13:45:52.537Z,6.53
2023-05-03T13:48:21.483Z,6.80
2023-05-03T13:50:49.177Z,7.43
2023-05-03T13:53:16.656Z,6.25
2023-05-03T13:55:44.131Z,6.95
2023-05-03T13:58:11.841Z,6.90
2023-05-03T14:00:39.346Z,7.53
2023-05-03T14:03:07.560Z,5.93
2023-05-03T14:05:36.779Z,6.60
2023-05-03T14:08:05.026Z,6.22
2023-05-03T14:10:35.711Z,6.53
2023-05-03T14:13:03.701Z,8.20
2023-05-03T14:15:31.559Z,6.80
2023-05-03T14:18:02.272Z,6.35
2023-05-03T14:20:34.104Z,7.40
2023-05-03T14:23:03.269Z,6.72
2023-05-03T14:25:31.218Z,6.53
2023-05-03T14:27:58.770Z,8.70
2023-05-03T14:30:26.237Z,7.57
2023-05-03T14:32:53.824Z,6.78
2023-05-03T14:35:22.677Z,7.35
2023-05-03T14:37:50.197Z,5.95
2023-05-03T14:40:20.632Z,5.60
2023-05-03T14:42:48.724Z,6.57
2023-05-03T14:45:16.633Z,8.02
2023-05-03T14:47:44.218Z,8.60
2023-05-03T14:50:11.866Z,7.32
2023-05-03T14:52:39.388Z,6.87
2023-05-03T14:55:08.340Z,6.40
2023-05-03T14:57:38.043Z,9.13
2023-05-03T15:00:09.084Z,5.82
2023-05-03T15:02:36.746Z,7.22
2023-05-03T15:05:05.014Z,5.97
2023-05-03T15:07:32.577Z,6.18
2023-05-03T15:10:03.529Z,6.80
2023-05-03T15:12:31.658Z,7.65
2023-05-03T15:15:00.586Z,8.13
2023-05-03T15:17:28.123Z,8.03
2023-05-03T15:19:55.825Z,6.20
2023-05-03T15:22:23.324Z,7.65
2023-05-03T15:24:50.874Z,5.80
2023-05-03T15:27:18.360Z,7.57
2023-05-03T15:29:46.047Z,6.77
2023-05-03T15:32:15.029Z,8.57
2023-05-03T15:34:42.943Z,7.45
2023-05-03T15:37:12.063Z,7.25
2023-05-03T15:39:39.919Z,5.53
2023-05-03T15:42:07.770Z,7.43
2023-05-03T15:44:35.274Z,7.85
2023-05-03T15:47:02.853Z,6.70
2023-05-03T15:49:31.796Z,7.93
2023-05-03T15:51:59.317Z,7.10
2023-05-03T15:54:26.858Z,7.27
2023-05-03T15:56:55.066Z,8.00
2023-05-03T15:59:22.564Z,10.25
2023-05-03T16:01:50.985Z,5.30
2023-05-03T16:04:18.677Z,6.50
2023-05-03T16:06:50.354Z,7.10
2023-05-03T16:09:18.913Z,7.07
2023-05-03T16:11:48.883Z,7.40
2023-05-03T16:14:17.760Z,6.65
2023-05-03T16:16:46.132Z,7.78
2023-05-03T16:19:14.601Z,8.47
2023-05-03T16:21:42.138Z,9.15
2023-05-03T16:24:11.230Z,8.10
2023-05-03T16:26:38.767Z,8.10
2023-05-03T16:29:06.313Z,7.15
2023-05-03T16:31:33.970Z,6.83
2023-05-03T16:34:02.555Z,8.05
2023-05-03T16:36:30.245Z,8.00
2023-05-03T16:38:57.752Z,8.48
2023-05-03T16:41:26.587Z,9.02
2023-05-03T16:43:54.151Z,5.97
2023-05-03T16:46:22.638Z,8.45
2023-05-03T16:48:51.151Z,8.55
2023-05-03T16:51:21.763Z,7.57
2023-05-03T16:53:49.313Z,8.13
2023-05-03T16:56:16.867Z,7.57
2023-05-03T16:58:46.962Z,6.07
2023-05-03T17:01:15.349Z,7.05
2023-05-03T17:03:43.204Z,7.35
2023-05-03T17:06:10.949Z,7.80
2023-05-03T17:08:38.449Z,9.97
2023-05-03T17:11:08.212Z,10.80
2023-05-03T17:13:36.151Z,8.32
2023-05-03T17:16:08.758Z,6.47
2023-05-03T17:18:37.576Z,6.78
2023-05-03T17:21:05.734Z,6.67
2023-05-03T17:23:35.797Z,6.68
2023-05-03T17:26:04.702Z,7.03
2023-05-03T17:28:33.386Z,6.28
2023-05-03T17:31:02.532Z,7.68
2023-05-03T17:33:31.381Z,8.80
2023-05-03T17:36:00.554Z,7.75
2023-05-03T17:38:28.208Z,6.53
2023-05-03T17:40:55.774Z,7.13
2023-05-03T17:43:23.365Z,9.82
2023-05-03T17:45:50.928Z,7.00
2023-05-03T17:48:18.420Z,6.80
2023-05-03T17:50:47.396Z,6.38
2023-05-03T17:53:14.901Z,8.88
2023-05-03T17:55:42.444Z,7.45
2023-05-03T17:58:10.765Z,7.93
2023-05-03T18:00:38.474Z,6.75
2023-05-03T18:03:07.897Z,8.65
2023-05-03T18:05:37.081Z,6.70
2023-05-03T18:08:06.331Z,7.05
2023-05-03T18:10:33.806Z,7.10
2023-05-03T18:13:01.450Z,8.05
2023-05-03T18:15:29.190Z,6.80
2023-05-03T18:17:57.744Z,7.38
2023-05-03T18:20:25.499Z,6.60
2023-05-03T18:22:53.040Z,7.23
2023-05-03T18:25:22.150Z,9.95
2023-05-03T18:27:50.704Z,7.45
2023-05-03T18:30:18.358Z,7.93
2023-05-03T18:32:45.943Z,7.30
2023-05-03T18:35:13.475Z,8.43
2023-05-03T18:37:41.233Z,8.20
2023-05-03T18:40:10.169Z,9.93
2023-05-03T18:42:39.039Z,8.95
2023-05-03T18:45:07.321Z,8.63
2023-05-03T18:47:34.922Z,7.20
2023-05-03T18:50:04.177Z,6.65
2023-05-03T18:52:31.845Z,8.00
2023-05-03T18:54:59.471Z,7.40
2023-05-03T18:57:27.170Z,7.22
2023-05-03T19:00:01.281Z,9.03
2023-05-03T19:02:31.030Z,7.53
2023-05-03T19:04:59.828Z,8.27
2023-05-03T19:07:27.850Z,8.18
2023-05-03T19:09:55.374Z,9.95
2023-05-03T19:12:23.101Z,8.30
2023-05-03T19:14:50.691Z,7.57
2023-05-03T19:17:19.584Z,8.57
2023-05-03T19:19:47.078Z,9.25
2023-05-03T19:22:14.886Z,6.82
2023-05-03T19:24:43.876Z,8.00
2023-05-03T19:27:11.480Z,7.53
2023-05-03T19:29:39.109Z,8.65
2023-05-03T19:32:06.982Z,8.40
2023-05-03T19:34:36.546Z,8.25
2023-05-03T19:37:04.996Z,9.63
2023-05-03T19:39:35.558Z,12.32
2023-05-03T19:42:03.870Z,8.57
2023-05-03T19:44:31.546Z,10.88
2023-05-03T19:46:59.081Z,10.23
2023-05-03T19:49:26.587Z,10.03
2023-05-03T19:51:55.944Z,7.95
2023-05-03T19:54:24.189Z,7.38
2023-05-03T19:56:51.937Z,10.20
2023-05-03T19:59:19.428Z,9.63
2023-05-03T20:01:47.010Z,8.00
2023-05-03T20:04:14.604Z,8.80
2023-05-03T20:06:42.177Z,10.40
2023-05-03T20:09:11.114Z,9.68
2023-05-03T20:11:38.624Z,8.55
2023-05-03T20:14:06.177Z,9.80
2023-05-03T20:16:38.623Z,5.60
2023-05-03T20:19:06.492Z,7.57
2023-05-03T20:21:34.032Z,6.75
2023-05-03T20:24:02.814Z,11.18
2023-05-03T20:26:31.642Z,10.27
2023-05-03T20:28:59.612Z,8.00
2023-05-03T20:31:27.162Z,8.23
2023-05-03T20:33:54.702Z,9.32
2023-05-03T20:36:22.456Z,8.60
2023-05-03T20:38:49.968Z,9.70
2023-05-03T20:41:18.268Z,8.55
2023-05-03T20:43:47.107Z,8.73
2023-05-03T20:46:14.719Z,8.57
2023-05-03T20:48:42.521Z,10.60
2023-05-03T20:51:10.051Z,9.17
2023-05-03T20:53:37.652Z,8.43
2023-05-03T20:56:07.596Z,6.35
2023-05-03T20:58:35.152Z,10.82
2023-05-03T21:01:05.340Z,9.07
2023-05-03T21:03:33.129Z,9.97
2023-05-03T21:06:01.103Z,9.95
2023-05-03T21:08:28.736Z,9.52
2023-05-03T21:10:56.340Z,11.35
2023-05-03T21:13:23.891Z,11.77
2023-05-03T21:15:51.654Z,12.83
2023-05-03T21:18:20.583Z,9.50
2023-05-03T21:20:48.110Z,10.80
2023-05-03T21:23:15.663Z,9.93
2023-05-03T21:25:43.259Z,11.85
2023-05-03T21:28:11.527Z,9.47
2023-05-03T21:30:40.563Z,11.18
2023-05-03T21:33:08.218Z,9.13
2023-05-03T21:35:37.173Z,7.70
2023-05-03T21:38:04.684Z,9.55
2023-05-03T21:40:33.058Z,10.70
2023-05-03T21:43:00.709Z,8.48
2023-05-03T21:45:28.298Z,9.30
2023-05-03T21:47:55.896Z,9.73
2023-05-03T21:50:23.683Z,9.00
2023-05-03T21:52:52.582Z,7.20
2023-05-03T21:55:20.757Z,8.00
2023-05-03T21:57:49.445Z,9.13
2023-05-03T22:00:20.435Z,10.73
2023-05-03T22:02:48.521Z,8.70
2023-05-03T22:05:16.339Z,8.27
2023-05-03T22:07:43.838Z,12.05
2023-05-03T22:10:12.696Z,7.95
2023-05-03T22:12:40.291Z,9.60
2023-05-03T22:15:09.013Z,10.02
2023-05-03T22:17:36.666Z,7.87
2023-05-03T22:20:05.630Z,8.25
2023-05-03T22:22:33.262Z,11.23
2023-05-03T22:25:01.049Z,8.38
2023-05-03T22:27:30.218Z,8.52
2023-05-03T22:29:57.792Z,10.50
2023-05-03T22:32:25.372Z,9.18
2023-05-03T22:34:52.942Z,9.23
2023-05-03T22:37:20.466Z,8.25
2023-05-03T22:39:47.983Z,8.15
2023-05-03T22:42:15.987Z,8.90
2023-05-03T22:44:44.796Z,9.07
2023-05-03T22:47:12.311Z,11.68
2023-05-03T22:49:39.812Z,10.05
2023-05-03T22:52:08.908Z,9.90
2023-05-03T22:54:36.434Z,10.20
2023-05-03T22:57:04.047Z,8.60
2023-05-03T22:59:31.590Z,10.80
2023-05-03T23:02:00.434Z,8.80
2023-05-03T23:04:28.043Z,10.35
2023-05-03T23:06:55.593Z,12.03
2023-05-03T23:09:23.079Z,11.05
2023-05-03T23:11:50.627Z,12.25
2023-05-03T23:14:18.129Z,7.13
2023-05-03T23:16:46.394Z,8.48
2023-05-03T23:19:15.274Z,8.13
2023-05-03T23:21:42.847Z,10.18
2023-05-03T23:24:10.532Z,9.65
2023-05-03T23:26:38.098Z,7.80
2023-05-03T23:29:06.048Z,12.30
2023-05-03T23:31:36.389Z,7.47
2023-05-03T23:34:05.027Z,9.40
2023-05-03T23:36:34.143Z,9.38
2023-05-03T23:39:01.694Z,8.15
2023-05-03T23:41:29.243Z,8.45
2023-05-03T23:43:56.805Z,8.90
2023-05-03T23:46:24.394Z,10.68
2023-05-03T23:48:51.915Z,10.63
2023-05-03T23:51:19.453Z,12.00
2023-05-03T23:53:48.308Z,9.20
2023-05-03T23:56:15.861Z,9.13
2023-05-03T23:58:43.384Z,9.50
